Aviation Digital Data Service (ADDS)

Output produced by METARs form (0237 UTC 03 July 2022)
found at http://www.aviationweather.gov/metar/data/
 
METAR text: KGNB 030215Z AUTO 14010G21KT 10SM CLR 18/05 A3029 RMK AO2 T01750051
Conditions at: KGNB (GRANBY/GRAND CO , CO, US) observed 0215 UTC 03 July 2022
Temperature: 17.5°C (64°F)
Dewpoint: 5.1°C (41°F) [RH = 44%]
Pressure (altimeter): 30.29 inches Hg (1025.8 mb)
Winds: from the SE (140 degrees) at 12 MPH (10 knots; 5.1 m/s)
gusting to 24 MPH (21 knots; 10.8 m/s)
Visibility: 10 or more miles (16+ km)
Ceiling: at least 12,000 feet AGL
Clouds: sky clear below 12,000 feet AGL
Weather: automated observation with no human augmentation;
there may or may not be significant weather present at this time

METAR text: KGNB 030155Z AUTO 15009G19KT 10SM CLR 18/06 A3029 RMK AO2 T01810055
Conditions at: KGNB (GRANBY/GRAND CO , CO, US) observed 0155 UTC 03 July 2022
Temperature: 18.1°C (65°F)
Dewpoint: 5.5°C (42°F) [RH = 43%]
Pressure (altimeter): 30.29 inches Hg (1025.8 mb)
Winds: from the SSE (150 degrees) at 10 MPH (9 knots; 4.6 m/s)
gusting to 22 MPH (19 knots; 9.8 m/s)
Visibility: 10 or more miles (16+ km)
Ceiling: at least 12,000 feet AGL
Clouds: sky clear below 12,000 feet AGL
Weather: automated observation with no human augmentation;
there may or may not be significant weather present at this time